sensor_id;sensor_type;location;lat;lon;timestamp;temperature;humidity
48604;DHT22;32708;51.212;6.788;2023-04-15T00:00:29;10.50;99.90
48604;DHT22;32708;51.212;6.788;2023-04-15T00:02:56;10.30;1.00
48604;DHT22;32708;51.212;6.788;2023-04-15T00:05:22;10.30;99.90
48604;DHT22;32708;51.212;6.788;2023-04-15T00:07:48;10.10;1.00
48604;DHT22;32708;51.212;6.788;2023-04-15T00:10:14;10.10;51.20
48604;DHT22;32708;51.212;6.788;2023-04-15T00:12:40;10.10;69.00
48604;DHT22;32708;51.212;6.788;2023-04-15T00:15:07;10.10;99.90
48604;DHT22;32708;51.212;6.788;2023-04-15T00:17:34;10.10;1.00
48604;DHT22;32708;51.212;6.788;2023-04-15T00:20:00;10.10;1.00
48604;DHT22;32708;51.212;6.788;2023-04-15T00:22:28;10.10;63.60
48604;DHT22;32708;51.212;6.788;2023-04-15T00:24:54;10.10;1.00
48604;DHT22;32708;51.212;6.788;2023-04-15T00:27:20;10.00;99.90
48604;DHT22;32708;51.212;6.788;2023-04-15T00:29:46;10.10;43.90
48604;DHT22;32708;51.212;6.788;2023-04-15T00:32:12;10.00;99.90
48604;DHT22;32708;51.212;6.788;2023-04-15T00:34:40;10.00;99.90
48604;DHT22;32708;51.212;6.788;2023-04-15T00:37:07;10.00;99.90
48604;DHT22;32708;51.212;6.788;2023-04-15T00:39:34;10.00;99.90
48604;DHT22;32708;51.212;6.788;2023-04-15T00:42:02;10.00;99.90
48604;DHT22;32708;51.212;6.788;2023-04-15T00:44:29;10.00;99.90
48604;DHT22;32708;51.212;6.788;2023-04-15T00:46:56;9.90;99.90
48604;DHT22;32708;51.212;6.788;2023-04-15T00:49:23;10.00;99.90
48604;DHT22;32708;51.212;6.788;2023-04-15T00:51:50;9.80;99.90
48604;DHT22;32708;51.212;6.788;2023-04-15T00:54:17;9.90;99.90
48604;DHT22;32708;51.212;6.788;2023-04-15T00:56:43;9.80;99.90
48604;DHT22;32708;51.212;6.788;2023-04-15T00:59:09;9.80;99.90
48604;DHT22;32708;51.212;6.788;2023-04-15T01:01:36;9.70;99.90
48604;DHT22;32708;51.212;6.788;2023-04-15T01:04:03;9.60;99.90
48604;DHT22;32708;51.212;6.788;2023-04-15T01:06:30;9.60;99.90
48604;DHT22;32708;51.212;6.788;2023-04-15T01:08:58;9.70;99.90
48604;DHT22;32708;51.212;6.788;2023-04-15T01:11:26;9.70;99.90
48604;DHT22;32708;51.212;6.788;2023-04-15T01:13:55;9.70;99.90
48604;DHT22;32708;51.212;6.788;2023-04-15T01:16:22;9.60;99.90
48604;DHT22;32708;51.212;6.788;2023-04-15T01:18:49;9.70;99.90
48604;DHT22;32708;51.212;6.788;2023-04-15T01:21:15;9.60;99.90
48604;DHT22;32708;51.212;6.788;2023-04-15T01:23:45;9.60;99.90
48604;DHT22;32708;51.212;6.788;2023-04-15T01:26:13;9.70;99.90
48604;DHT22;32708;51.212;6.788;2023-04-15T01:28:41;9.70;99.90
48604;DHT22;32708;51.212;6.788;2023-04-15T01:31:11;9.60;99.90
48604;DHT22;32708;51.212;6.788;2023-04-15T01:33:40;9.60;99.90
48604;DHT22;32708;51.212;6.788;2023-04-15T01:36:26;9.70;99.90
48604;DHT22;32708;51.212;6.788;2023-04-15T01:38:54;9.50;99.90
48604;DHT22;32708;51.212;6.788;2023-04-15T01:41:28;9.50;99.90
48604;DHT22;32708;51.212;6.788;2023-04-15T01:43:56;9.60;99.90
48604;DHT22;32708;51.212;6.788;2023-04-15T01:46:23;9.60;99.90
48604;DHT22;32708;51.212;6.788;2023-04-15T01:48:50;9.50;99.90
48604;DHT22;32708;51.212;6.788;2023-04-15T01:51:18;9.40;99.90
48604;DHT22;32708;51.212;6.788;2023-04-15T01:53:45;9.40;99.90
48604;DHT22;32708;51.212;6.788;2023-04-15T01:56:13;9.40;99.90
48604;DHT22;32708;51.212;6.788;2023-04-15T01:58:44;9.40;1.00
48604;DHT22;32708;51.212;6.788;2023-04-15T02:01:11;9.40;1.00
48604;DHT22;32708;51.212;6.788;2023-04-15T02:03:39;9.50;1.00
48604;DHT22;32708;51.212;6.788;2023-04-15T02:06:06;9.50;1.00
48604;DHT22;32708;51.212;6.788;2023-04-15T02:08:33;9.70;1.00
48604;DHT22;32708;51.212;6.788;2023-04-15T02:11:01;9.80;1.00
48604;DHT22;32708;51.212;6.788;2023-04-15T02:13:28;9.70;1.00
48604;DHT22;32708;51.212;6.788;2023-04-15T02:15:58;9.70;1.00
48604;DHT22;32708;51.212;6.788;2023-04-15T02:18:25;9.70;1.00
48604;DHT22;32708;51.212;6.788;2023-04-15T02:20:53;9.80;1.00
48604;DHT22;32708;51.212;6.788;2023-04-15T02:23:20;9.80;1.00
48604;DHT22;32708;51.212;6.788;2023-04-15T02:25:47;9.60;1.00
48604;DHT22;32708;51.212;6.788;2023-04-15T02:28:15;9.70;99.90
48604;DHT22;32708;51.212;6.788;2023-04-15T02:30:47;9.50;1.00
48604;DHT22;32708;51.212;6.788;2023-04-15T02:33:18;9.50;1.00
48604;DHT22;32708;51.212;6.788;2023-04-15T02:35:47;9.50;1.00
48604;DHT22;32708;51.212;6.788;2023-04-15T02:38:14;9.50;1.00
48604;DHT22;32708;51.212;6.788;2023-04-15T02:40:43;9.50;1.00
48604;DHT22;32708;51.212;6.788;2023-04-15T02:43:11;9.50;1.00
48604;DHT22;32708;51.212;6.788;2023-04-15T02:45:38;9.40;1.00
48604;DHT22;32708;51.212;6.788;2023-04-15T02:48:06;9.40;1.00
48604;DHT22;32708;51.212;6.788;2023-04-15T02:50:34;9.50;1.00
48604;DHT22;32708;51.212;6.788;2023-04-15T02:53:01;9.50;1.00
48604;DHT22;32708;51.212;6.788;2023-04-15T02:55:30;9.50;1.00
48604;DHT22;32708;51.212;6.788;2023-04-15T02:57:57;9.30;1.00
48604;DHT22;32708;51.212;6.788;2023-04-15T03:00:26;9.30;1.00
48604;DHT22;32708;51.212;6.788;2023-04-15T03:03:03;9.20;1.00
48604;DHT22;32708;51.212;6.788;2023-04-15T03:05:32;9.30;1.00
48604;DHT22;32708;51.212;6.788;2023-04-15T03:08:00;9.30;1.00
48604;DHT22;32708;51.212;6.788;2023-04-15T03:10:29;9.10;1.00
48604;DHT22;32708;51.212;6.788;2023-04-15T03:12:56;9.00;1.00
48604;DHT22;32708;51.212;6.788;2023-04-15T03:15:24;9.00;1.00
48604;DHT22;32708;51.212;6.788;2023-04-15T03:17:53;9.00;1.00
48604;DHT22;32708;51.212;6.788;2023-04-15T03:20:20;9.00;1.00
48604;DHT22;32708;51.212;6.788;2023-04-15T03:22:48;9.10;1.00
48604;DHT22;32708;51.212;6.788;2023-04-15T03:25:16;9.10;1.00
48604;DHT22;32708;51.212;6.788;2023-04-15T03:27:43;9.20;7.00
48604;DHT22;32708;51.212;6.788;2023-04-15T03:30:12;9.20;1.00
48604;DHT22;32708;51.212;6.788;2023-04-15T03:32:41;9.30;1.00
48604;DHT22;32708;51.212;6.788;2023-04-15T03:35:09;9.40;8.00
48604;DHT22;32708;51.212;6.788;2023-04-15T03:37:36;9.30;2.50
48604;DHT22;32708;51.212;6.788;2023-04-15T03:40:04;9.50;12.60
48604;DHT22;32708;51.212;6.788;2023-04-15T03:42:31;9.50;1.00
48604;DHT22;32708;51.212;6.788;2023-04-15T03:44:59;9.40;8.10
48604;DHT22;32708;51.212;6.788;2023-04-15T03:47:26;9.40;8.50
48604;DHT22;32708;51.212;6.788;2023-04-15T03:49:53;9.30;1.00
48604;DHT22;32708;51.212;6.788;2023-04-15T03:52:21;9.30;1.00
48604;DHT22;32708;51.212;6.788;2023-04-15T03:54:48;9.30;1.00
48604;DHT22;32708;51.212;6.788;2023-04-15T03:57:15;9.30;1.00
48604;DHT22;32708;51.212;6.788;2023-04-15T03:59:43;9.20;1.00
48604;DHT22;32708;51.212;6.788;2023-04-15T04:02:10;9.20;10.10
48604;DHT22;32708;51.212;6.788;2023-04-15T04:04:38;9.20;10.40
48604;DHT22;32708;51.212;6.788;2023-04-15T04:07:05;9.30;2.50
48604;DHT22;32708;51.212;6.788;2023-04-15T04:09:32;9.20;1.00
48604;DHT22;32708;51.212;6.788;2023-04-15T04:12:00;8.90;14.80
48604;DHT22;32708;51.212;6.788;2023-04-15T04:14:28;9.10;8.00
48604;DHT22;32708;51.212;6.788;2023-04-15T04:16:55;9.00;18.70
48604;DHT22;32708;51.212;6.788;2023-04-15T04:19:23;9.10;13.60
48604;DHT22;32708;51.212;6.788;2023-04-15T04:21:50;9.00;9.20
48604;DHT22;32708;51.212;6.788;2023-04-15T04:24:18;8.90;11.50
48604;DHT22;32708;51.212;6.788;2023-04-15T04:26:46;9.00;28.50
48604;DHT22;32708;51.212;6.788;2023-04-15T04:29:13;9.00;42.90
48604;DHT22;32708;51.212;6.788;2023-04-15T04:31:41;9.00;48.90
48604;DHT22;32708;51.212;6.788;2023-04-15T04:34:08;9.00;46.30
48604;DHT22;32708;51.212;6.788;2023-04-15T04:36:35;9.00;30.90
48604;DHT22;32708;51.212;6.788;2023-04-15T04:39:03;9.10;45.20
48604;DHT22;32708;51.212;6.788;2023-04-15T04:41:30;9.20;36.50
48604;DHT22;32708;51.212;6.788;2023-04-15T04:43:58;9.20;33.60
48604;DHT22;32708;51.212;6.788;2023-04-15T04:46:25;9.20;40.30
48604;DHT22;32708;51.212;6.788;2023-04-15T04:48:53;9.20;34.80
48604;DHT22;32708;51.212;6.788;2023-04-15T04:51:20;9.20;45.60
48604;DHT22;32708;51.212;6.788;2023-04-15T04:53:47;9.20;29.70
48604;DHT22;32708;51.212;6.788;2023-04-15T04:56:15;8.90;21.30
48604;DHT22;32708;51.212;6.788;2023-04-15T04:58:42;9.10;23.90
48604;DHT22;32708;51.212;6.788;2023-04-15T05:01:09;9.00;17.50
48604;DHT22;32708;51.212;6.788;2023-04-15T05:03:37;9.10;11.80
48604;DHT22;32708;51.212;6.788;2023-04-15T05:06:04;9.10;18.90
48604;DHT22;32708;51.212;6.788;2023-04-15T05:08:34;9.10;8.40
48604;DHT22;32708;51.212;6.788;2023-04-15T05:11:02;9.20;26.60
48604;DHT22;32708;51.212;6.788;2023-04-15T05:13:29;9.20;8.40
48604;DHT22;32708;51.212;6.788;2023-04-15T05:15:57;9.20;30.20
48604;DHT22;32708;51.212;6.788;2023-04-15T05:18:24;9.20;24.90
48604;DHT22;32708;51.212;6.788;2023-04-15T05:20:52;9.30;29.00
48604;DHT22;32708;51.212;6.788;2023-04-15T05:23:19;9.30;26.90
48604;DHT22;32708;51.212;6.788;2023-04-15T05:25:46;9.40;20.10
48604;DHT22;32708;51.212;6.788;2023-04-15T05:28:14;9.40;23.10
48604;DHT22;32708;51.212;6.788;2023-04-15T05:30:41;9.40;14.80
48604;DHT22;32708;51.212;6.788;2023-04-15T05:33:09;9.60;5.20
48604;DHT22;32708;51.212;6.788;2023-04-15T05:35:36;9.60;1.10
48604;DHT22;32708;51.212;6.788;2023-04-15T05:38:04;9.70;1.00
48604;DHT22;32708;51.212;6.788;2023-04-15T05:40:31;9.80;1.30
48604;DHT22;32708;51.212;6.788;2023-04-15T05:42:58;9.80;1.50
48604;DHT22;32708;51.212;6.788;2023-04-15T05:45:26;10.00;1.00
48604;DHT22;32708;51.212;6.788;2023-04-15T05:47:53;10.10;1.00
48604;DHT22;32708;51.212;6.788;2023-04-15T05:50:21;9.80;1.00
48604;DHT22;32708;51.212;6.788;2023-04-15T05:52:48;10.20;1.00
48604;DHT22;32708;51.212;6.788;2023-04-15T05:55:15;10.40;1.00
48604;DHT22;32708;51.212;6.788;2023-04-15T05:57:43;10.50;1.00
48604;DHT22;32708;51.212;6.788;2023-04-15T06:00:10;10.50;1.00
48604;DHT22;32708;51.212;6.788;2023-04-15T06:02:39;10.40;1.00
48604;DHT22;32708;51.212;6.788;2023-04-15T06:05:07;10.40;1.00
48604;DHT22;32708;51.212;6.788;2023-04-15T06:07:36;10.60;1.00
48604;DHT22;32708;51.212;6.788;2023-04-15T06:10:05;10.60;1.00
48604;DHT22;32708;51.212;6.788;2023-04-15T06:12:33;10.70;1.00
48604;DHT22;32708;51.212;6.788;2023-04-15T06:15:01;10.70;1.00
48604;DHT22;32708;51.212;6.788;2023-04-15T06:17:28;10.60;1.00
48604;DHT22;32708;51.212;6.788;2023-04-15T06:19:56;10.70;1.00
48604;DHT22;32708;51.212;6.788;2023-04-15T06:22:23;10.60;1.00
48604;DHT22;32708;51.212;6.788;2023-04-15T06:24:51;10.40;1.00
48604;DHT22;32708;51.212;6.788;2023-04-15T06:27:19;10.50;1.00
48604;DHT22;32708;51.212;6.788;2023-04-15T06:29:47;10.40;1.00
48604;DHT22;32708;51.212;6.788;2023-04-15T06:32:15;10.50;1.00
48604;DHT22;32708;51.212;6.788;2023-04-15T06:34:42;10.50;1.00
48604;DHT22;32708;51.212;6.788;2023-04-15T06:37:10;10.20;22.30
48604;DHT22;32708;51.212;6.788;2023-04-15T06:39:42;10.40;13.90
48604;DHT22;32708;51.212;6.788;2023-04-15T06:42:10;10.80;1.00
48604;DHT22;32708;51.212;6.788;2023-04-15T06:44:38;10.80;1.00
48604;DHT22;32708;51.212;6.788;2023-04-15T06:47:06;10.60;6.40
48604;DHT22;32708;51.212;6.788;2023-04-15T06:49:33;10.90;1.00
48604;DHT22;32708;51.212;6.788;2023-04-15T06:52:01;11.00;1.00
48604;DHT22;32708;51.212;6.788;2023-04-15T06:54:29;11.30;1.00
48604;DHT22;32708;51.212;6.788;2023-04-15T06:56:56;11.60;1.00
48604;DHT22;32708;51.212;6.788;2023-04-15T06:59:23;11.90;99.90
48604;DHT22;32708;51.212;6.788;2023-04-15T07:01:51;12.20;99.90
48604;DHT22;32708;51.212;6.788;2023-04-15T07:04:18;12.70;99.90
48604;DHT22;32708;51.212;6.788;2023-04-15T07:06:46;12.90;99.90
48604;DHT22;32708;51.212;6.788;2023-04-15T07:09:14;12.90;99.90
48604;DHT22;32708;51.212;6.788;2023-04-15T07:11:41;12.60;99.90
48604;DHT22;32708;51.212;6.788;2023-04-15T07:14:08;12.90;99.90
48604;DHT22;32708;51.212;6.788;2023-04-15T07:16:36;13.50;1.00
48604;DHT22;32708;51.212;6.788;2023-04-15T07:19:03;13.70;99.90
48604;DHT22;32708;51.212;6.788;2023-04-15T07:21:30;13.50;97.70
48604;DHT22;32708;51.212;6.788;2023-04-15T07:23:58;13.00;45.20
48604;DHT22;32708;51.212;6.788;2023-04-15T07:26:25;12.50;99.90
48604;DHT22;32708;51.212;6.788;2023-04-15T07:28:53;12.10;99.90
48604;DHT22;32708;51.212;6.788;2023-04-15T07:31:20;12.10;99.90
48604;DHT22;32708;51.212;6.788;2023-04-15T07:33:48;11.90;99.90
48604;DHT22;32708;51.212;6.788;2023-04-15T07:36:15;12.10;99.90
48604;DHT22;32708;51.212;6.788;2023-04-15T07:38:42;11.90;99.90
48604;DHT22;32708;51.212;6.788;2023-04-15T07:41:10;12.20;99.90
48604;DHT22;32708;51.212;6.788;2023-04-15T07:43:38;12.40;99.90
48604;DHT22;32708;51.212;6.788;2023-04-15T07:46:05;12.60;99.90
48604;DHT22;32708;51.212;6.788;2023-04-15T07:48:33;12.30;99.90
48604;DHT22;32708;51.212;6.788;2023-04-15T07:51:00;11.70;99.90
48604;DHT22;32708;51.212;6.788;2023-04-15T07:53:28;11.80;99.90
48604;DHT22;32708;51.212;6.788;2023-04-15T07:55:56;11.80;99.90
48604;DHT22;32708;51.212;6.788;2023-04-15T07:58:23;11.80;99.90
48604;DHT22;32708;51.212;6.788;2023-04-15T08:00:51;11.70;99.90
48604;DHT22;32708;51.212;6.788;2023-04-15T08:03:18;11.90;99.90
48604;DHT22;32708;51.212;6.788;2023-04-15T08:05:46;12.10;1.00
48604;DHT22;32708;51.212;6.788;2023-04-15T08:08:13;11.80;99.90
48604;DHT22;32708;51.212;6.788;2023-04-15T08:10:41;11.80;99.90
48604;DHT22;32708;51.212;6.788;2023-04-15T08:13:08;12.10;2.10
48604;DHT22;32708;51.212;6.788;2023-04-15T08:15:35;12.10;99.90
48604;DHT22;32708;51.212;6.788;2023-04-15T08:18:03;12.50;99.90
48604;DHT22;32708;51.212;6.788;2023-04-15T08:20:30;12.70;1.00
48604;DHT22;32708;51.212;6.788;2023-04-15T08:22:58;13.00;99.90
48604;DHT22;32708;51.212;6.788;2023-04-15T08:25:25;12.70;1.00
48604;DHT22;32708;51.212;6.788;2023-04-15T08:27:57;12.40;99.90
48604;DHT22;32708;51.212;6.788;2023-04-15T08:30:24;12.30;99.90
48604;DHT22;32708;51.212;6.788;2023-04-15T08:32:52;12.30;1.00
48604;DHT22;32708;51.212;6.788;2023-04-15T08:35:19;12.50;1.00
48604;DHT22;32708;51.212;6.788;2023-04-15T08:37:47;12.90;99.90
48604;DHT22;32708;51.212;6.788;2023-04-15T08:40:14;12.60;1.00
48604;DHT22;32708;51.212;6.788;2023-04-15T08:42:45;12.90;99.90
48604;DHT22;32708;51.212;6.788;2023-04-15T08:45:19;13.60;99.90
48604;DHT22;32708;51.212;6.788;2023-04-15T08:47:53;13.50;20.30
48604;DHT22;32708;51.212;6.788;2023-04-15T08:50:24;13.50;1.00
48604;DHT22;32708;51.212;6.788;2023-04-15T08:52:55;13.70;63.40
48604;DHT22;32708;51.212;6.788;2023-04-15T08:55:32;13.50;99.90
48604;DHT22;32708;51.212;6.788;2023-04-15T08:58:03;13.40;1.00
48604;DHT22;32708;51.212;6.788;2023-04-15T09:00:32;13.40;1.00
48604;DHT22;32708;51.212;6.788;2023-04-15T09:03:00;13.30;76.80
48604;DHT22;32708;51.212;6.788;2023-04-15T09:05:31;13.20;99.90
48604;DHT22;32708;51.212;6.788;2023-04-15T09:08:00;13.00;99.90
48604;DHT22;32708;51.212;6.788;2023-04-15T09:10:28;13.50;99.90
48604;DHT22;32708;51.212;6.788;2023-04-15T09:12:56;13.40;34.00
48604;DHT22;32708;51.212;6.788;2023-04-15T09:15:25;13.30;1.00
48604;DHT22;32708;51.212;6.788;2023-04-15T09:17:58;13.50;99.90
48604;DHT22;32708;51.212;6.788;2023-04-15T09:20:25;13.50;39.70
48604;DHT22;32708;51.212;6.788;2023-04-15T09:22:53;13.90;99.90
48604;DHT22;32708;51.212;6.788;2023-04-15T09:27:57;14.30;99.90
48604;DHT22;32708;51.212;6.788;2023-04-15T09:30:27;14.40;99.90
48604;DHT22;32708;51.212;6.788;2023-04-15T09:32:57;14.60;90.80
48604;DHT22;32708;51.212;6.788;2023-04-15T09:35:26;14.50;78.70
48604;DHT22;32708;51.212;6.788;2023-04-15T09:40:31;14.40;1.00
48604;DHT22;32708;51.212;6.788;2023-04-15T09:42:59;14.50;99.90
48604;DHT22;32708;51.212;6.788;2023-04-15T09:45:32;14.10;99.90
48604;DHT22;32708;51.212;6.788;2023-04-15T09:48:19;14.30;99.90
48604;DHT22;32708;51.212;6.788;2023-04-15T09:50:49;14.10;1.00
48604;DHT22;32708;51.212;6.788;2023-04-15T09:53:21;14.30;1.00
48604;DHT22;32708;51.212;6.788;2023-04-15T09:55:55;14.70;99.90
48604;DHT22;32708;51.212;6.788;2023-04-15T09:58:26;14.60;99.90
48604;DHT22;32708;51.212;6.788;2023-04-15T10:00:57;14.50;99.90
48604;DHT22;32708;51.212;6.788;2023-04-15T10:03:27;14.40;99.90
48604;DHT22;32708;51.212;6.788;2023-04-15T10:05:59;13.90;99.90
48604;DHT22;32708;51.212;6.788;2023-04-15T10:08:32;14.00;1.00
48604;DHT22;32708;51.212;6.788;2023-04-15T10:11:05;14.30;1.00
48604;DHT22;32708;51.212;6.788;2023-04-15T10:13:35;15.40;99.90
48604;DHT22;32708;51.212;6.788;2023-04-15T10:16:30;15.80;1.00
48604;DHT22;32708;51.212;6.788;2023-04-15T10:19:01;15.70;99.90
48604;DHT22;32708;51.212;6.788;2023-04-15T10:21:30;15.90;99.90
48604;DHT22;32708;51.212;6.788;2023-04-15T10:23:58;15.50;99.90
48604;DHT22;32708;51.212;6.788;2023-04-15T10:26:27;15.10;99.90
48604;DHT22;32708;51.212;6.788;2023-04-15T10:28:57;14.90;99.90
48604;DHT22;32708;51.212;6.788;2023-04-15T10:31:25;15.20;62.80
48604;DHT22;32708;51.212;6.788;2023-04-15T10:33:53;15.10;61.50
48604;DHT22;32708;51.212;6.788;2023-04-15T10:36:21;15.00;99.90
48604;DHT22;32708;51.212;6.788;2023-04-15T10:38:49;14.90;99.90
48604;DHT22;32708;51.212;6.788;2023-04-15T10:43:59;13.90;1.00
48604;DHT22;32708;51.212;6.788;2023-04-15T10:46:42;14.00;99.90
48604;DHT22;32708;51.212;6.788;2023-04-15T10:49:16;13.80;99.90
48604;DHT22;32708;51.212;6.788;2023-04-15T10:51:52;13.90;99.90
48604;DHT22;32708;51.212;6.788;2023-04-15T10:59:30;14.00;99.90
48604;DHT22;32708;51.212;6.788;2023-04-15T11:02:06;14.10;99.90
48604;DHT22;32708;51.212;6.788;2023-04-15T11:12:56;14.00;1.00
48604;DHT22;32708;51.212;6.788;2023-04-15T11:15:32;13.80;1.00
48604;DHT22;32708;51.212;6.788;2023-04-15T11:18:20;13.60;99.90
48604;DHT22;32708;51.212;6.788;2023-04-15T11:21:04;13.50;99.90
48604;DHT22;32708;51.212;6.788;2023-04-15T11:23:34;13.50;1.00
48604;DHT22;32708;51.212;6.788;2023-04-15T11:26:13;13.20;99.90
48604;DHT22;32708;51.212;6.788;2023-04-15T11:28:43;13.30;99.90
48604;DHT22;32708;51.212;6.788;2023-04-15T11:33:56;13.70;88.40
48604;DHT22;32708;51.212;6.788;2023-04-15T11:36:26;13.90;99.90
48604;DHT22;32708;51.212;6.788;2023-04-15T11:38:57;13.90;99.90
48604;DHT22;32708;51.212;6.788;2023-04-15T11:41:25;13.80;1.00
48604;DHT22;32708;51.212;6.788;2023-04-15T11:43:53;13.70;55.10
48604;DHT22;32708;51.212;6.788;2023-04-15T11:46:27;13.50;99.90
48604;DHT22;32708;51.212;6.788;2023-04-15T11:48:56;13.40;99.90
48604;DHT22;32708;51.212;6.788;2023-04-15T11:51:24;13.50;99.90
48604;DHT22;32708;51.212;6.788;2023-04-15T11:53:51;13.40;99.90
48604;DHT22;32708;51.212;6.788;2023-04-15T11:56:22;13.40;99.90
48604;DHT22;32708;51.212;6.788;2023-04-15T11:58:54;13.30;99.90
48604;DHT22;32708;51.212;6.788;2023-04-15T12:01:40;13.40;99.90
48604;DHT22;32708;51.212;6.788;2023-04-15T12:04:16;13.30;99.90
48604;DHT22;32708;51.212;6.788;2023-04-15T12:06:45;13.00;99.90
48604;DHT22;32708;51.212;6.788;2023-04-15T12:09:17;13.20;99.90
48604;DHT22;32708;51.212;6.788;2023-04-15T12:11:49;13.10;99.90
48604;DHT22;32708;51.212;6.788;2023-04-15T12:14:32;12.90;99.90
48604;DHT22;32708;51.212;6.788;2023-04-15T12:17:01;12.80;1.00
48604;DHT22;32708;51.212;6.788;2023-04-15T12:19:38;12.80;1.00
48604;DHT22;32708;51.212;6.788;2023-04-15T12:22:11;12.80;1.00
48604;DHT22;32708;51.212;6.788;2023-04-15T12:24:41;12.80;1.00
48604;DHT22;32708;51.212;6.788;2023-04-15T12:27:11;12.90;99.90
48604;DHT22;32708;51.212;6.788;2023-04-15T12:29:39;12.90;99.90
48604;DHT22;32708;51.212;6.788;2023-04-15T12:32:12;12.80;99.90
48604;DHT22;32708;51.212;6.788;2023-04-15T12:34:49;12.90;99.90
48604;DHT22;32708;51.212;6.788;2023-04-15T12:37:17;12.80;99.90
48604;DHT22;32708;51.212;6.788;2023-04-15T12:39:45;12.90;1.00
48604;DHT22;32708;51.212;6.788;2023-04-15T12:42:14;12.90;99.90
48604;DHT22;32708;51.212;6.788;2023-04-15T12:44:41;13.00;1.00
48604;DHT22;32708;51.212;6.788;2023-04-15T12:47:09;13.10;99.90
48604;DHT22;32708;51.212;6.788;2023-04-15T12:49:36;13.10;99.90
48604;DHT22;32708;51.212;6.788;2023-04-15T12:52:04;13.40;99.90
48604;DHT22;32708;51.212;6.788;2023-04-15T12:54:31;13.40;99.90
48604;DHT22;32708;51.212;6.788;2023-04-15T12:57:00;13.20;99.90
48604;DHT22;32708;51.212;6.788;2023-04-15T12:59:28;13.30;99.90
48604;DHT22;32708;51.212;6.788;2023-04-15T13:01:54;13.10;99.90
48604;DHT22;32708;51.212;6.788;2023-04-15T13:04:23;12.90;1.00
48604;DHT22;32708;51.212;6.788;2023-04-15T13:06:49;12.80;1.00
48604;DHT22;32708;51.212;6.788;2023-04-15T13:09:15;12.70;1.00
48604;DHT22;32708;51.212;6.788;2023-04-15T13:11:42;12.70;1.00
48604;DHT22;32708;51.212;6.788;2023-04-15T13:14:08;12.60;1.00
48604;DHT22;32708;51.212;6.788;2023-04-15T13:16:40;12.60;1.00
48604;DHT22;32708;51.212;6.788;2023-04-15T13:19:07;12.60;1.00
48604;DHT22;32708;51.212;6.788;2023-04-15T13:21:34;12.50;1.00
48604;DHT22;32708;51.212;6.788;2023-04-15T13:24:01;12.60;1.00
48604;DHT22;32708;51.212;6.788;2023-04-15T13:26:28;12.60;1.00
48604;DHT22;32708;51.212;6.788;2023-04-15T13:28:54;12.60;1.00
48604;DHT22;32708;51.212;6.788;2023-04-15T13:31:20;12.60;1.00
48604;DHT22;32708;51.212;6.788;2023-04-15T13:33:46;12.50;1.00
48604;DHT22;32708;51.212;6.788;2023-04-15T13:36:13;12.50;1.00
48604;DHT22;32708;51.212;6.788;2023-04-15T13:38:39;12.60;1.00
48604;DHT22;32708;51.212;6.788;2023-04-15T13:41:05;12.70;1.00
48604;DHT22;32708;51.212;6.788;2023-04-15T13:43:31;12.50;1.00
48604;DHT22;32708;51.212;6.788;2023-04-15T13:45:59;12.50;1.00
48604;DHT22;32708;51.212;6.788;2023-04-15T13:48:25;12.70;1.00
48604;DHT22;32708;51.212;6.788;2023-04-15T13:50:51;12.40;1.00
48604;DHT22;32708;51.212;6.788;2023-04-15T13:53:17;12.30;1.00
48604;DHT22;32708;51.212;6.788;2023-04-15T13:55:43;12.20;1.00
48604;DHT22;32708;51.212;6.788;2023-04-15T13:58:10;12.20;1.00
48604;DHT22;32708;51.212;6.788;2023-04-15T14:00:36;12.40;1.00
48604;DHT22;32708;51.212;6.788;2023-04-15T14:03:03;12.50;1.00
48604;DHT22;32708;51.212;6.788;2023-04-15T14:05:29;12.40;1.00
48604;DHT22;32708;51.212;6.788;2023-04-15T14:07:56;12.30;1.00
48604;DHT22;32708;51.212;6.788;2023-04-15T14:10:22;12.40;1.00
48604;DHT22;32708;51.212;6.788;2023-04-15T14:12:48;12.50;1.00
48604;DHT22;32708;51.212;6.788;2023-04-15T14:15:14;12.40;1.00
48604;DHT22;32708;51.212;6.788;2023-04-15T14:17:41;12.30;1.00
48604;DHT22;32708;51.212;6.788;2023-04-15T14:20:07;12.30;1.00
48604;DHT22;32708;51.212;6.788;2023-04-15T14:22:34;12.30;1.00
48604;DHT22;32708;51.212;6.788;2023-04-15T14:25:01;12.30;1.00
48604;DHT22;32708;51.212;6.788;2023-04-15T14:27:28;12.30;1.00
48604;DHT22;32708;51.212;6.788;2023-04-15T14:29:54;12.50;1.00
48604;DHT22;32708;51.212;6.788;2023-04-15T14:32:20;12.80;1.00
48604;DHT22;32708;51.212;6.788;2023-04-15T14:34:46;12.70;1.00
48604;DHT22;32708;51.212;6.788;2023-04-15T14:37:13;12.80;1.00
48604;DHT22;32708;51.212;6.788;2023-04-15T14:39:39;12.80;1.00
48604;DHT22;32708;51.212;6.788;2023-04-15T14:42:05;12.60;1.00
48604;DHT22;32708;51.212;6.788;2023-04-15T14:44:32;12.70;1.00
48604;DHT22;32708;51.212;6.788;2023-04-15T14:46:58;12.60;1.00
48604;DHT22;32708;51.212;6.788;2023-04-15T14:49:24;12.50;1.00
48604;DHT22;32708;51.212;6.788;2023-04-15T14:51:51;12.40;1.00
48604;DHT22;32708;51.212;6.788;2023-04-15T14:54:17;12.50;1.00
48604;DHT22;32708;51.212;6.788;2023-04-15T14:56:43;12.60;1.00
48604;DHT22;32708;51.212;6.788;2023-04-15T14:59:09;12.40;1.00
48604;DHT22;32708;51.212;6.788;2023-04-15T15:01:35;12.50;1.00
48604;DHT22;32708;51.212;6.788;2023-04-15T15:04:01;12.40;1.00
48604;DHT22;32708;51.212;6.788;2023-04-15T15:06:28;12.30;11.00
48604;DHT22;32708;51.212;6.788;2023-04-15T15:08:55;12.40;22.30
48604;DHT22;32708;51.212;6.788;2023-04-15T15:11:21;12.30;23.50
48604;DHT22;32708;51.212;6.788;2023-04-15T15:13:47;12.20;46.90
48604;DHT22;32708;51.212;6.788;2023-04-15T15:16:13;12.30;36.70
48604;DHT22;32708;51.212;6.788;2023-04-15T15:18:40;12.30;25.20
48604;DHT22;32708;51.212;6.788;2023-04-15T15:21:06;12.10;29.80
48604;DHT22;32708;51.212;6.788;2023-04-15T15:23:32;12.00;36.20
48604;DHT22;32708;51.212;6.788;2023-04-15T15:25:58;11.90;43.10
48604;DHT22;32708;51.212;6.788;2023-04-15T15:28:25;12.00;51.80
48604;DHT22;32708;51.212;6.788;2023-04-15T15:30:51;12.10;44.90
48604;DHT22;32708;51.212;6.788;2023-04-15T15:33:17;12.10;58.00
48604;DHT22;32708;51.212;6.788;2023-04-15T15:35:46;12.20;59.50
48604;DHT22;32708;51.212;6.788;2023-04-15T15:38:12;12.20;54.60
48604;DHT22;32708;51.212;6.788;2023-04-15T15:40:38;12.10;59.20
48604;DHT22;32708;51.212;6.788;2023-04-15T15:43:04;11.90;65.70
48604;DHT22;32708;51.212;6.788;2023-04-15T15:45:30;12.00;68.30
48604;DHT22;32708;51.212;6.788;2023-04-15T15:47:57;12.00;71.10
48604;DHT22;32708;51.212;6.788;2023-04-15T15:50:23;11.90;73.80
48604;DHT22;32708;51.212;6.788;2023-04-15T15:52:50;11.80;71.10
48604;DHT22;32708;51.212;6.788;2023-04-15T15:55:16;11.70;79.00
48604;DHT22;32708;51.212;6.788;2023-04-15T15:57:46;11.70;79.50
48604;DHT22;32708;51.212;6.788;2023-04-15T16:00:12;11.70;84.50
48604;DHT22;32708;51.212;6.788;2023-04-15T16:02:39;11.80;89.10
48604;DHT22;32708;51.212;6.788;2023-04-15T16:05:06;12.10;88.30
48604;DHT22;32708;51.212;6.788;2023-04-15T16:07:32;11.80;91.00
48604;DHT22;32708;51.212;6.788;2023-04-15T16:09:58;11.70;94.90
48604;DHT22;32708;51.212;6.788;2023-04-15T16:12:24;12.00;96.50